Time;durP1;ratioP1;P1;durP2;ratioP2;P2;SDS_P1;SDS_P2;PMS_P1;PMS_P2;Temp;Humidity;BMP_temperature;BMP_pressure;BME280_temperature;BME280_humidity;BME280_pressure;Samples;Min_cycle;Max_cycle;Signal;HPM_P1;HPM_P2
2023/03/03 00:00:57;;;;;;;23.77;12.30;;;;;;;2.76;100.00;100713.47;5066528;28;20032;-73
2023/03/03 00:03:25;;;;;;;22.23;11.63;;;;;;;2.77;100.00;100711.72;5064476;28;20028;-73
2023/03/03 00:05:52;;;;;;;21.30;11.95;;;;;;;2.75;100.00;100709.25;5060974;28;20028;-73
2023/03/03 00:08:18;;;;;;;19.02;11.32;;;;;;;2.71;100.00;100709.50;5064029;28;20055;-73
2023/03/03 00:10:44;;;;;;;22.10;12.02;;;;;;;2.72;100.00;100706.00;5062219;28;20033;-73
2023/03/03 00:13:16;;;;;;;20.83;11.10;;;;;;;2.72;100.00;100709.41;5059920;28;20028;-73
2023/03/03 00:15:42;;;;;;;26.52;11.93;;;;;;;2.67;100.00;100706.28;5060644;28;20139;-73
2023/03/03 00:18:39;;;;;;;23.35;11.93;;;;;;;2.60;100.00;100712.69;5063446;28;20517;-73
2023/03/03 00:21:21;;;;;;;21.85;12.38;;;;;;;2.63;100.00;100709.94;5044915;28;20480;-73
2023/03/03 00:23:46;;;;;;;23.27;12.35;;;;;;;2.68;100.00;100702.78;5059471;28;20068;-73
2023/03/03 00:26:29;;;;;;;22.23;11.45;;;;;;;2.68;100.00;100705.34;5061757;28;20043;-73
2023/03/03 00:28:55;;;;;;;21.63;11.55;;;;;;;2.66;100.00;100705.44;5061352;28;20463;-72
2023/03/03 00:31:34;;;;;;;21.50;11.48;;;;;;;2.58;100.00;100704.22;5064893;28;20055;-73
2023/03/03 00:34:26;;;;;;;22.63;10.93;;;;;;;2.53;100.00;100706.22;5065741;28;20058;-72
2023/03/03 00:36:57;;;;;;;24.10;12.32;;;;;;;2.47;100.00;100699.69;5063569;28;20054;-73
2023/03/03 00:39:36;;;;;;;24.23;12.60;;;;;;;2.45;100.00;100704.09;5060062;28;20052;-73
2023/03/03 00:42:09;;;;;;;24.60;11.35;;;;;;;2.46;100.00;100695.47;5063211;28;22360;-73
2023/03/03 00:44:45;;;;;;;20.85;10.45;;;;;;;2.50;100.00;100696.13;5054791;28;20467;-72
2023/03/03 00:47:24;;;;;;;22.63;10.35;;;;;;;2.48;100.00;100693.63;5061157;28;20078;-73
2023/03/03 00:49:49;;;;;;;17.65;9.95;;;;;;;2.50;100.00;100691.81;5066564;28;20044;-73
2023/03/03 00:52:18;;;;;;;21.20;11.02;;;;;;;2.51;100.00;100687.47;5064979;28;20040;-72
2023/03/03 00:54:44;;;;;;;22.63;12.18;;;;;;;2.51;100.00;100687.47;5061244;28;20024;-73
2023/03/03 00:57:13;;;;;;;25.02;13.18;;;;;;;2.47;100.00;100686.81;5060283;28;20035;-72
2023/03/03 00:59:39;;;;;;;27.00;13.43;;;;;;;2.51;100.00;100685.75;5065742;28;20024;-73
2023/03/03 01:02:05;;;;;;;25.15;12.25;;;;;;;2.53;100.00;100688.22;5057864;28;20153;-72
2023/03/03 01:04:30;;;;;;;29.08;13.15;;;;;;;2.50;100.00;100686.66;5057959;28;20035;-72
2023/03/03 01:06:56;;;;;;;24.55;13.15;;;;;;;2.47;100.00;100686.81;5064034;28;20032;-72
2023/03/03 01:09:21;;;;;;;23.27;12.35;;;;;;;2.41;100.00;100676.06;5064468;28;20024;-72
2023/03/03 01:11:47;;;;;;;26.13;12.50;;;;;;;2.38;100.00;100677.06;5063418;28;20047;-73
2023/03/03 01:14:13;;;;;;;22.20;12.00;;;;;;;2.38;100.00;100665.94;5060392;28;20421;-73
2023/03/03 01:16:40;;;;;;;25.05;12.40;;;;;;;2.26;100.00;100663.19;5061642;28;20064;-72
2023/03/03 01:19:06;;;;;;;22.50;12.10;;;;;;;2.28;100.00;100655.38;5057521;28;20425;-72
2023/03/03 01:21:32;;;;;;;25.52;12.30;;;;;;;2.31;100.00;100658.59;5064423;28;20443;-72
2023/03/03 01:23:57;;;;;;;25.40;12.88;;;;;;;2.29;100.00;100657.88;5060078;28;20098;-73
2023/03/03 01:26:23;;;;;;;24.13;11.80;;;;;;;2.29;100.00;100645.00;5060642;28;20039;-73
2023/03/03 01:28:48;;;;;;;27.52;12.30;;;;;;;2.29;100.00;100642.44;5062018;28;20182;-73
2023/03/03 01:31:14;;;;;;;21.85;10.93;;;;;;;2.29;100.00;100642.44;5058717;28;20025;-72
2023/03/03 01:33:39;;;;;;;25.55;12.25;;;;;;;2.39;100.00;100642.72;5064283;28;20039;-72
2023/03/03 01:36:05;;;;;;;27.08;10.75;;;;;;;2.42;100.00;100639.13;5062732;28;20118;-73
2023/03/03 01:38:31;;;;;;;21.85;10.52;;;;;;;2.45;100.00;100636.41;5060670;28;20024;-72
2023/03/03 01:40:58;;;;;;;22.17;11.43;;;;;;;2.46;100.00;100630.34;5062095;28;20130;-73
2023/03/03 01:43:29;;;;;;;26.17;11.07;;;;;;;2.46;100.00;100636.31;5063588;28;20032;-72
2023/03/03 01:45:56;;;;;;;22.65;11.45;;;;;;;2.43;100.00;100633.09;5062026;28;20124;-73
2023/03/03 01:48:43;;;;;;;22.73;11.15;;;;;;;2.45;100.00;100628.69;5062501;28;20037;-72
2023/03/03 01:51:19;;;;;;;17.42;9.95;;;;;;;2.47;100.00;100625.09;5062801;28;20044;-72
2023/03/03 01:53:53;;;;;;;;;;;;;;;2.52;100.00;100617.94;5056283;28;20060;-72
2023/03/03 01:56:19;;;;;;;21.60;9.90;;;;;;;2.56;100.00;100622.00;5061147;28;20035;-73
2023/03/03 01:58:51;;;;;;;17.35;9.00;;;;;;;2.49;100.00;100618.13;5063166;28;20107;-72
2023/03/03 02:01:23;;;;;;;18.00;9.05;;;;;;;2.57;100.00;100615.94;5060502;28;20039;-72
2023/03/03 02:03:49;;;;;;;18.70;9.55;;;;;;;2.64;100.00;100617.25;5062807;28;20020;-73
2023/03/03 02:06:19;;;;;;;15.60;8.50;;;;;;;2.70;100.00;100610.91;5061013;28;20477;-72
2023/03/03 02:09:10;;;;;;;17.48;8.82;;;;;;;2.73;100.00;100607.31;5064247;28;20614;-72
2023/03/03 02:11:37;;;;;;;17.67;8.80;;;;;;;2.77;100.00;100607.06;5060445;28;20072;-72
2023/03/03 02:14:03;;;;;;;15.93;9.40;;;;;;;2.74;100.00;100602.09;5059135;28;20063;-72
2023/03/03 02:16:28;;;;;;;17.52;9.35;;;;;;;2.79;100.00;100602.66;5058956;28;20456;-72
2023/03/03 02:18:54;;;;;;;15.52;9.25;;;;;;;2.81;100.00;100608.53;5055974;28;20503;-72
2023/03/03 02:21:22;;;;;;;15.48;8.93;;;;;;;2.82;100.00;100601.63;5061783;28;20109;-73
2023/03/03 02:24:10;;;;;;;19.50;9.38;;;;;;;2.83;100.00;100604.13;5057483;28;20029;-73
2023/03/03 02:26:40;;;;;;;13.27;8.43;;;;;;;2.82;100.00;100602.47;5064059;28;20063;-73
2023/03/03 02:29:06;;;;;;;16.55;8.68;;;;;;;2.76;100.00;100594.28;5060709;28;20040;-72
2023/03/03 02:31:32;;;;;;;13.98;8.45;;;;;;;2.79;100.00;100592.34;5059938;28;20124;-73
2023/03/03 02:33:58;;;;;;;12.43;7.80;;;;;;;2.80;100.00;100591.44;5058219;28;20116;-72
2023/03/03 02:36:25;;;;;;;14.77;7.65;;;;;;;2.78;100.00;100590.69;5057946;28;20121;-73
2023/03/03 02:39:17;;;;;;;13.40;7.65;;;;;;;2.82;100.00;100583.63;5059782;28;20480;-72
2023/03/03 02:42:26;;;;;;;11.27;6.57;;;;;;;2.88;100.00;100589.19;5063008;28;20033;-73
2023/03/03 02:44:51;;;;;;;14.80;7.38;;;;;;;2.90;100.00;100582.22;5061571;28;20087;-73
2023/03/03 02:47:17;;;;;;;15.07;8.43;;;;;;;2.98;100.00;100592.88;5062377;28;20033;-72
2023/03/03 02:49:42;;;;;;;16.33;7.60;;;;;;;3.03;100.00;100587.47;5057952;28;21275;-73
2023/03/03 02:52:10;;;;;;;11.68;7.07;;;;;;;3.07;100.00;100585.53;5062271;28;20041;-73
2023/03/03 02:54:37;;;;;;;12.60;7.65;;;;;;;3.15;100.00;100594.44;5062229;28;20037;-73
2023/03/03 02:57:03;;;;;;;19.73;7.47;;;;;;;3.19;100.00;100593.31;5066193;28;20127;-73
2023/03/03 02:59:29;;;;;;;14.70;7.90;;;;;;;3.24;100.00;100587.91;5068393;28;21261;-73
2023/03/03 03:01:55;;;;;;;12.88;7.80;;;;;;;3.30;100.00;100585.78;5062470;28;20108;-72
2023/03/03 03:04:25;;;;;;;12.90;7.93;;;;;;;3.36;100.00;100581.13;5068594;28;20067;-72
2023/03/03 03:06:52;;;;;;;15.13;7.90;;;;;;;3.37;100.00;100586.19;5064842;28;20115;-73
2023/03/03 03:09:19;;;;;;;15.05;8.13;;;;;;;3.43;100.00;100585.81;5067599;28;20033;-72
2023/03/03 03:11:45;;;;;;;13.85;9.00;;;;;;;3.51;100.00;100587.91;5063721;28;20052;-72
2023/03/03 03:14:12;;;;;;;12.73;8.02;;;;;;;3.53;100.00;100581.75;5067570;28;20458;-73
2023/03/03 03:16:38;;;;;;;14.00;8.23;;;;;;;3.51;100.00;100583.59;5065499;28;20063;-73
2023/03/03 03:19:06;;;;;;;15.30;7.47;;;;;;;3.55;100.00;100584.22;5066199;28;20064;-73
2023/03/03 03:21:32;;;;;;;16.67;8.13;;;;;;;3.56;100.00;100580.72;5066249;28;20075;-73
2023/03/03 03:23:57;;;;;;;14.57;7.88;;;;;;;3.58;100.00;100584.84;5061886;28;20063;-73
2023/03/03 03:26:23;;;;;;;12.13;7.95;;;;;;;3.59;100.00;100585.69;5063547;28;20801;-73
2023/03/03 03:28:50;;;;;;;12.15;8.40;;;;;;;3.49;100.00;100582.84;5045345;28;20431;-72
2023/03/03 03:31:16;;;;;;;17.33;9.18;;;;;;;3.52;100.00;100590.38;5065944;28;20031;-73
2023/03/03 03:33:42;;;;;;;13.77;8.63;;;;;;;3.55;100.00;100592.78;5062404;28;20115;-73
2023/03/03 03:36:08;;;;;;;16.90;9.10;;;;;;;3.56;100.00;100586.69;5062462;28;20132;-73
2023/03/03 03:38:35;;;;;;;13.40;8.15;;;;;;;3.59;100.00;100586.50;5065833;28;20051;-73
2023/03/03 03:41:01;;;;;;;13.23;7.28;;;;;;;3.61;100.00;100587.25;5062704;28;20029;-72
2023/03/03 03:43:26;;;;;;;11.43;7.50;;;;;;;3.62;100.00;100580.34;5064060;28;20081;-73
2023/03/03 03:45:52;;;;;;;12.10;7.70;;;;;;;3.63;100.00;100576.84;5066187;28;20044;-72
2023/03/03 03:48:18;;;;;;;11.68;6.47;;;;;;;3.64;100.00;100589.63;5066687;28;20043;-73
2023/03/03 03:50:46;;;;;;;12.82;7.95;;;;;;;3.68;100.00;100590.25;5050357;28;20032;-73
2023/03/03 03:53:11;;;;;;;12.43;7.35;;;;;;;3.67;100.00;100578.31;5061969;28;20411;-72
2023/03/03 03:55:36;;;;;;;16.88;8.20;;;;;;;3.66;100.00;100574.06;5062853;28;20028;-73
2023/03/03 03:58:02;;;;;;;12.73;7.00;;;;;;;3.67;100.00;100573.97;5065176;28;20027;-72
2023/03/03 04:00:27;;;;;;;16.10;8.75;;;;;;;3.62;100.00;100580.34;5064971;28;20032;-73
2023/03/03 04:02:53;;;;;;;14.20;8.23;;;;;;;3.66;100.00;100571.50;5061576;28;20385;-72
2023/03/03 04:05:18;;;;;;;14.32;8.57;;;;;;;3.71;100.00;100573.78;5061838;28;20032;-73
2023/03/03 04:07:44;;;;;;;14.88;8.63;;;;;;;3.76;100.00;100571.75;5064883;28;20037;-72
2023/03/03 04:10:10;;;;;;;12.30;7.72;;;;;;;3.80;100.00;100568.84;5063853;28;20036;-72
2023/03/03 04:12:38;;;;;;;13.75;7.97;;;;;;;3.80;100.00;100568.84;5060192;28;20056;-73
2023/03/03 04:15:11;;;;;;;19.38;8.52;;;;;;;3.79;100.00;100566.34;5065598;28;20051;-72
2023/03/03 04:17:37;;;;;;;14.13;8.23;;;;;;;3.79;100.00;100566.34;5064238;28;20028;-72
2023/03/03 04:20:04;;;;;;;15.10;8.43;;;;;;;3.79;100.00;100568.94;5063941;28;20032;-72
2023/03/03 04:22:34;;;;;;;14.27;8.20;;;;;;;3.74;100.00;100564.09;5060873;28;20029;-72
2023/03/03 04:25:03;;;;;;;10.98;7.38;;;;;;;3.72;100.00;100565.94;5064695;28;20074;-72
2023/03/03 04:27:33;;;;;;;14.57;8.45;;;;;;;3.73;100.00;100567.59;5062144;28;20036;-73
2023/03/03 04:29:59;;;;;;;12.43;8.18;;;;;;;3.73;100.00;100561.63;5062806;28;20387;-72
2023/03/03 04:32:24;;;;;;;14.65;8.23;;;;;;;3.73;100.00;100564.19;5059740;28;20032;-72
2023/03/03 04:34:50;;;;;;;12.35;6.97;;;;;;;3.72;100.00;100559.97;5061558;28;20111;-72
2023/03/03 04:37:16;;;;;;;12.18;6.82;;;;;;;3.69;100.00;100563.56;5064015;28;20059;-72
2023/03/03 04:39:42;;;;;;;12.40;7.35;;;;;;;3.64;100.00;100574.16;5062163;28;20033;-72
2023/03/03 04:42:07;;;;;;;16.20;8.48;;;;;;;3.59;100.00;100560.75;5059882;28;20054;-72
2023/03/03 04:44:32;;;;;;;13.25;6.85;;;;;;;3.55;100.00;100561.88;5062253;28;20028;-73
2023/03/03 04:46:58;;;;;;;14.63;8.27;;;;;;;3.53;100.00;100561.13;5058796;28;20369;-72
2023/03/03 04:49:24;;;;;;;13.23;7.95;;;;;;;3.51;100.00;100557.81;5063257;28;20033;-72
2023/03/03 04:51:49;;;;;;;13.15;7.47;;;;;;;3.48;100.00;100562.34;5061634;28;20470;-72
2023/03/03 04:54:14;;;;;;;17.48;8.45;;;;;;;3.41;100.00;100567.06;5063335;28;20036;-72
2023/03/03 04:56:40;;;;;;;13.88;7.35;;;;;;;3.36;100.00;100556.22;5060356;28;20028;-72
2023/03/03 04:59:05;;;;;;;14.55;8.13;;;;;;;3.36;100.00;100558.78;5064900;28;20065;-72
2023/03/03 05:01:31;;;;;;;12.88;7.68;;;;;;;3.32;100.00;100562.47;5064309;28;20115;-72
2023/03/03 05:03:56;;;;;;;12.20;7.95;;;;;;;3.28;100.00;100553.31;5061479;28;21425;-72
2023/03/03 05:06:21;;;;;;;13.95;8.43;;;;;;;3.28;100.00;100556.72;5058627;28;20043;-72
2023/03/03 05:08:47;;;;;;;14.82;8.23;;;;;;;3.47;100.00;100558.94;5061904;28;20033;-72
2023/03/03 05:11:12;;;;;;;15.32;8.98;;;;;;;3.53;100.00;100553.41;5063132;28;20041;-71
2023/03/03 05:13:38;;;;;;;14.93;8.60;;;;;;;3.49;100.00;100559.66;5062746;28;20029;-72
2023/03/03 05:16:04;;;;;;;15.93;9.05;;;;;;;3.48;100.00;100552.88;5061170;28;20500;-72
2023/03/03 05:18:29;;;;;;;16.17;9.07;;;;;;;3.49;100.00;100553.69;5064219;28;20051;-72
2023/03/03 05:20:55;;;;;;;17.38;8.75;;;;;;;3.48;100.00;100552.88;5061217;28;20480;-72
2023/03/03 05:23:21;;;;;;;19.92;10.18;;;;;;;3.46;100.00;100553.88;5057141;28;20029;-72
2023/03/03 05:25:47;;;;;;;19.02;10.13;;;;;;;3.39;100.00;100558.59;5061871;28;20059;-72
2023/03/03 05:28:13;;;;;;;14.70;8.57;;;;;;;3.34;100.00;100555.47;5062882;28;20036;-72
2023/03/03 05:30:39;;;;;;;18.65;9.20;;;;;;;3.29;100.00;100553.22;5059645;28;20035;-72
2023/03/03 05:33:05;;;;;;;16.05;8.70;;;;;;;3.25;100.00;100546.59;5060523;28;20044;-71
2023/03/03 05:35:31;;;;;;;14.02;8.73;;;;;;;3.25;100.00;100551.75;5059113;28;20025;-72
2023/03/03 05:37:59;;;;;;;13.75;8.63;;;;;;;3.18;100.00;100553.06;5058837;28;20481;-72
2023/03/03 05:40:24;;;;;;;14.15;8.38;;;;;;;3.11;100.00;100553.53;5057089;28;20086;-72
2023/03/03 05:42:51;;;;;;;13.63;8.32;;;;;;;3.06;100.00;100555.56;5063048;28;20065;-72
2023/03/03 05:45:19;;;;;;;13.23;8.27;;;;;;;3.08;100.00;100557.13;5062954;28;20113;-72
2023/03/03 05:47:45;;;;;;;20.77;9.45;;;;;;;3.12;100.00;100555.19;5064152;28;20087;-72
2023/03/03 05:50:11;;;;;;;16.63;8.38;;;;;;;3.17;100.00;100558.28;5061559;28;20060;-72
2023/03/03 05:52:36;;;;;;;17.83;9.60;;;;;;;3.20;100.00;100573.56;5059283;28;20091;-72
2023/03/03 05:55:02;;;;;;;17.80;9.82;;;;;;;3.15;100.00;100566.13;5058347;28;20501;-72
2023/03/03 05:57:27;;;;;;;16.73;9.50;;;;;;;3.22;100.00;100572.53;5060175;28;20036;-72
2023/03/03 05:59:53;;;;;;;15.50;9.27;;;;;;;3.24;100.00;100580.19;5059355;28;20098;-72
2023/03/03 06:02:19;;;;;;;17.48;10.32;;;;;;;3.28;100.00;100576.50;5059510;28;20033;-72
2023/03/03 06:04:44;;;;;;;18.90;9.80;;;;;;;3.34;100.00;100578.66;5060874;28;20033;-72
2023/03/03 06:07:09;;;;;;;19.55;10.20;;;;;;;3.47;100.00;100587.28;5059071;28;20036;-72
2023/03/03 06:09:35;;;;;;;31.08;11.02;;;;;;;3.58;100.00;100589.19;5060416;28;20383;-73
2023/03/03 06:12:01;;;;;;;17.00;10.18;;;;;;;3.89;100.00;100591.44;5064376;28;20100;-72
2023/03/03 06:14:26;;;;;;;19.90;9.80;;;;;;;3.92;100.00;100588.66;5062061;28;20048;-73
2023/03/03 06:16:52;;;;;;;17.48;9.98;;;;;;;3.92;100.00;100585.25;5063731;28;20044;-72
2023/03/03 06:19:17;;;;;;;23.42;11.07;;;;;;;3.99;100.00;100599.41;5063474;28;20120;-72
2023/03/03 06:21:43;;;;;;;21.23;10.43;;;;;;;4.05;100.00;100586.13;5063679;28;20107;-72
2023/03/03 06:24:08;;;;;;;16.30;9.75;;;;;;;4.12;100.00;100597.69;5062043;28;20450;-72
2023/03/03 06:26:34;;;;;;;20.42;10.38;;;;;;;4.19;100.00;100598.97;5059100;28;20040;-72
2023/03/03 06:29:00;;;;;;;25.98;10.95;;;;;;;4.26;100.00;100601.94;5062397;28;20028;-72
2023/03/03 06:31:26;;;;;;;17.73;9.40;;;;;;;4.35;100.00;100601.34;5062216;28;20079;-72
2023/03/03 06:33:51;;;;;;;24.27;10.52;;;;;;;4.40;100.00;100601.03;5052946;28;20055;-72
2023/03/03 06:36:17;;;;;;;18.15;9.38;;;;;;;4.39;100.00;100605.38;5063830;28;20409;-72
2023/03/03 06:38:43;;;;;;;16.33;9.68;;;;;;;4.53;100.00;100604.44;5066248;28;20028;-72
2023/03/03 06:41:09;;;;;;;14.98;9.90;;;;;;;4.62;100.00;100606.41;5067851;28;20442;-72
2023/03/03 06:43:35;;;;;;;17.45;10.23;;;;;;;4.64;100.00;100613.13;5062402;28;20035;-72
2023/03/03 06:46:02;;;;;;;22.52;11.73;;;;;;;4.65;100.00;100613.97;5056054;28;20404;-72
2023/03/03 06:48:29;;;;;;;16.23;11.50;;;;;;;4.71;100.00;100607.56;5062215;28;20123;-72
2023/03/03 06:50:54;;;;;;;20.65;12.70;;;;;;;4.73;100.00;100606.50;5058848;28;20159;-72
2023/03/03 06:53:20;;;;;;;20.45;11.50;;;;;;;4.79;100.00;100613.84;5062122;28;20154;-72
2023/03/03 06:55:46;;;;;;;26.23;13.13;;;;;;;4.84;100.00;100609.19;5062444;28;20138;-73
2023/03/03 06:58:17;;;;;;;24.38;13.00;;;;;;;4.90;100.00;100616.50;5061566;28;20024;-72
2023/03/03 07:00:52;;;;;;;22.08;11.90;;;;;;;4.95;100.00;100616.19;5061143;28;20107;-72
2023/03/03 07:03:22;;;;;;;25.98;14.52;;;;;;;5.02;100.00;100608.88;5071407;28;20476;-73
2023/03/03 07:05:48;;;;;;;21.25;12.80;;;;;;;5.09;100.00;100620.44;5066203;28;20039;-72
2023/03/03 07:08:19;;;;;;;19.85;13.60;;;;;;;5.14;100.00;100623.53;5065758;28;20040;-72
2023/03/03 07:10:45;;;;;;;26.85;13.15;;;;;;;5.18;100.00;100622.38;5058639;28;20120;-72
2023/03/03 07:13:22;;;;;;;24.13;13.15;;;;;;;5.23;100.00;100625.44;5044256;28;20382;-71
2023/03/03 07:15:51;;;;;;;24.98;12.65;;;;;;;5.32;100.00;100629.97;5045440;28;20025;-72
2023/03/03 07:18:32;;;;;;;27.67;13.75;;;;;;;5.47;100.00;100634.09;5043479;28;20052;-72
2023/03/03 07:21:02;;;;;;;26.88;13.18;;;;;;;5.56;100.00;100633.44;5042387;28;20539;-72
2023/03/03 07:23:41;;;;;;;21.63;12.05;;;;;;;5.61;100.00;100635.72;5045038;28;20484;-73
2023/03/03 07:26:10;;;;;;;30.17;14.45;;;;;;;5.72;98.28;100632.34;5039593;28;20037;-72
2023/03/03 07:28:40;;;;;;;27.58;14.20;;;;;;;5.81;97.74;100626.50;5047281;28;20120;-73
2023/03/03 07:31:24;;;;;;;26.08;13.68;;;;;;;5.87;98.44;100632.06;5041963;28;20116;-72
2023/03/03 07:33:49;;;;;;;27.92;13.25;;;;;;;5.95;98.58;100639.31;5045979;28;20125;-72
2023/03/03 07:36:36;;;;;;;28.67;14.70;;;;;;;6.04;98.19;100630.88;5046916;28;20120;-72
2023/03/03 07:39:20;;;;;;;;;;;;;;;6.12;98.98;100640.69;5042120;28;20033;-71
2023/03/03 07:41:46;;;;;;;30.00;17.48;;;;;;;6.16;98.86;100647.25;5037700;28;19962;-72
2023/03/03 07:44:20;;;;;;;31.15;18.10;;;;;;;6.23;98.53;100643.28;5045368;28;20458;-72
2023/03/03 07:46:49;;;;;;;31.30;17.35;;;;;;;6.29;97.89;100650.59;5047632;28;20392;-72
2023/03/03 07:49:23;;;;;;;33.25;17.55;;;;;;;6.43;97.96;100647.00;5047577;28;20498;-71
2023/03/03 07:51:56;;;;;;;27.33;15.85;;;;;;;6.58;97.17;100658.81;5042782;28;20134;-72
2023/03/03 07:54:44;;;;;;;26.92;14.50;;;;;;;6.68;95.70;100649.41;5047619;28;20433;-72
2023/03/03 07:57:18;;;;;;;22.50;14.10;;;;;;;6.84;95.58;100652.50;5048166;28;20029;-71
2023/03/03 07:59:50;;;;;;;26.48;13.38;;;;;;;6.91;95.41;100648.50;5049260;28;20027;-72
2023/03/03 08:02:27;;;;;;;28.55;13.52;;;;;;;6.98;95.34;100647.09;5045466;28;20117;-72
2023/03/03 08:04:53;;;;;;;24.88;12.73;;;;;;;7.17;95.14;100650.84;5045022;28;20036;-72
2023/03/03 08:07:21;;;;;;;17.40;11.63;;;;;;;7.28;94.81;100658.63;5049585;28;20120;-72
2023/03/03 08:09:58;;;;;;;15.63;9.73;;;;;;;7.39;94.14;100657.81;5045479;28;20036;-72
2023/03/03 08:12:50;;;;;;;19.52;11.65;;;;;;;7.53;93.06;100655.78;5060120;28;20059;-72
2023/03/03 08:15:22;;;;;;;16.15;9.80;;;;;;;7.73;93.00;100656.78;5059605;28;20040;-72
2023/03/03 08:17:49;;;;;;;19.30;8.95;;;;;;;7.91;91.87;100657.13;5065566;28;20122;-72
2023/03/03 08:20:33;;;;;;;18.85;8.20;;;;;;;8.06;90.93;100660.22;5070242;28;20026;-72
2023/03/03 08:22:59;;;;;;;13.68;7.25;;;;;;;8.21;90.32;100665.00;5064825;28;20128;-69
2023/03/03 08:25:24;;;;;;;16.45;7.78;;;;;;;8.37;89.29;100672.41;5060002;28;20128;-72
2023/03/03 08:27:49;;;;;;;9.40;6.18;;;;;;;8.45;87.84;100667.41;5065213;28;20486;-72
2023/03/03 08:30:15;;;;;;;10.68;6.72;;;;;;;8.51;86.96;100655.69;5045369;28;20025;-73
2023/03/03 08:32:41;;;;;;;11.85;6.38;;;;;;;8.50;85.34;100659.25;5063926;28;20044;-72
2023/03/03 08:35:06;;;;;;;12.38;6.50;;;;;;;8.46;84.46;100661.28;5061684;28;20074;-71
2023/03/03 08:37:32;;;;;;;8.95;5.82;;;;;;;8.40;84.80;100666.97;5069193;28;20028;-72
2023/03/03 08:39:57;;;;;;;13.32;6.60;;;;;;;8.48;84.35;100663.75;5065896;28;20032;-73
2023/03/03 08:42:23;;;;;;;8.95;5.95;;;;;;;8.58;83.73;100660.25;5062831;28;20476;-72
2023/03/03 08:44:48;;;;;;;10.75;6.85;;;;;;;8.78;83.71;100663.78;5063511;28;20040;-72
2023/03/03 08:47:13;;;;;;;9.82;5.95;;;;;;;8.91;83.18;100659.22;5067612;28;20471;-73
2023/03/03 08:49:39;;;;;;;12.68;6.60;;;;;;;8.98;82.56;100660.31;5063258;28;20097;-72
2023/03/03 08:52:04;;;;;;;11.23;6.07;;;;;;;8.95;82.27;100657.19;5066382;28;20032;-72
2023/03/03 08:54:31;;;;;;;9.25;5.88;;;;;;;9.10;81.70;100655.88;5059969;28;20063;-72
2023/03/03 08:56:56;;;;;;;9.70;6.50;;;;;;;9.23;81.56;100651.28;5062844;28;20482;-72
2023/03/03 08:59:22;;;;;;;9.00;6.10;;;;;;;9.32;81.22;100662.69;5064696;28;20112;-72
2023/03/03 09:01:47;;;;;;;9.68;6.05;;;;;;;9.33;80.66;100659.13;5062867;28;20081;-72
2023/03/03 09:04:13;;;;;;;11.60;6.93;;;;;;;9.38;80.89;100666.53;5064493;28;20047;-71
2023/03/03 09:06:38;;;;;;;10.88;6.55;;;;;;;9.39;80.03;100666.41;5065888;28;20036;-71
2023/03/03 09:09:04;;;;;;;11.27;7.63;;;;;;;9.38;79.97;100677.75;5067201;28;20036;-72
2023/03/03 09:11:29;;;;;;;17.02;9.95;;;;;;;9.46;79.54;100674.47;5063729;28;20056;-72
2023/03/03 09:14:19;;;;;;;13.90;9.20;;;;;;;9.44;77.14;100666.00;5065126;28;20043;-72
2023/03/03 09:16:52;;;;;;;11.55;6.70;;;;;;;9.37;78.52;100686.50;5065908;28;20119;-71
2023/03/03 09:19:32;;;;;;;13.35;8.65;;;;;;;9.38;77.66;100679.53;5063925;28;20029;-71
2023/03/03 09:22:17;;;;;;;7.45;5.10;;;;;;;9.32;77.31;100693.88;5051968;28;20028;-72
2023/03/03 09:24:42;;;;;;;9.90;5.28;;;;;;;9.34;77.47;100694.56;5067299;28;20028;-72
2023/03/03 09:27:30;;;;;;;7.50;5.15;;;;;;;9.20;75.50;100692.31;5068051;28;20036;-72
2023/03/03 09:30:25;;;;;;;7.00;4.78;;;;;;;9.14;76.36;100693.66;5064166;28;20031;-72
2023/03/03 09:32:51;;;;;;;7.18;4.95;;;;;;;9.18;76.72;100689.84;5067209;28;20081;-71
2023/03/03 09:35:37;;;;;;;7.90;4.60;;;;;;;9.15;76.15;100697.91;5053126;28;20131;-72
2023/03/03 09:38:25;;;;;;;5.80;4.75;;;;;;;9.17;76.32;100701.19;5066638;28;20028;-71
2023/03/03 09:40:54;;;;;;;9.90;4.97;;;;;;;9.12;77.72;100700.75;5064887;28;20024;-72
2023/03/03 09:43:25;;;;;;;8.52;5.30;;;;;;;9.06;79.03;100698.66;5065016;28;20568;-72
2023/03/03 09:46:28;;;;;;;8.80;5.85;;;;;;;8.91;79.33;100699.97;5066650;28;20054;-72
2023/03/03 09:49:28;;;;;;;8.30;5.43;;;;;;;8.83;80.72;100705.81;5062301;28;20504;-72
2023/03/03 09:52:03;;;;;;;12.02;8.25;;;;;;;8.83;81.66;100711.00;5065233;28;20485;-71
2023/03/03 09:54:55;;;;;;;13.90;8.15;;;;;;;8.82;81.47;100711.13;5068023;28;20507;-72
2023/03/03 09:57:51;;;;;;;9.30;6.75;;;;;;;8.77;81.27;100703.72;5065481;28;20032;-72
2023/03/03 10:00:34;;;;;;;8.93;6.10;;;;;;;8.69;81.22;100716.50;5067807;28;20452;-72
2023/03/03 10:03:29;;;;;;;9.10;6.00;;;;;;;8.61;81.32;100713.72;5064869;28;20044;-72
2023/03/03 10:06:24;;;;;;;10.13;6.05;;;;;;;8.60;81.60;100717.25;5055372;28;20138;-72
2023/03/03 10:09:15;;;;;;;8.00;5.80;;;;;;;8.62;81.15;100721.38;5067617;28;20029;-71
2023/03/03 10:12:04;;;;;;;8.10;6.05;;;;;;;8.67;81.19;100718.41;5058459;28;20514;-72
2023/03/03 10:14:44;;;;;;;11.18;6.20;;;;;;;8.67;81.51;100721.00;5064049;28;20438;-72
2023/03/03 10:17:28;;;;;;;7.93;5.72;;;;;;;8.63;81.21;100725.63;5058803;28;20044;-72
2023/03/03 10:20:08;;;;;;;9.13;6.28;;;;;;;8.69;80.77;100726.06;5065454;28;20044;-71
2023/03/03 10:23:01;;;;;;;9.57;5.63;;;;;;;8.70;80.64;100738.09;5065440;28;20020;-69
2023/03/03 10:25:42;;;;;;;8.65;5.45;;;;;;;8.76;79.75;100733.25;5060339;28;20041;-71
2023/03/03 10:28:33;;;;;;;8.18;5.30;;;;;;;8.79;79.35;100737.34;5064928;28;20041;-72
2023/03/03 10:31:36;;;;;;;10.02;6.78;;;;;;;8.83;78.57;100739.59;5064697;28;20123;-72
2023/03/03 10:34:04;;;;;;;6.20;4.50;;;;;;;8.91;79.12;100742.38;5067551;28;20031;-71
2023/03/03 10:36:45;;;;;;;7.20;4.60;;;;;;;8.93;78.45;100740.47;5065158;28;20059;-71
2023/03/03 10:39:10;;;;;;;9.70;5.40;;;;;;;9.09;78.94;100736.56;5066651;28;20551;-71
2023/03/03 10:41:50;;;;;;;7.50;4.35;;;;;;;9.16;78.55;100748.13;5059910;28;20023;-71
2023/03/03 10:44:25;;;;;;;7.32;4.03;;;;;;;9.23;79.29;100744.06;5061552;28;20033;-71
2023/03/03 10:47:08;;;;;;;6.53;4.05;;;;;;;9.28;77.86;100745.31;5046748;28;20040;-72
2023/03/03 10:49:40;;;;;;;5.63;4.25;;;;;;;9.22;78.40;100745.00;5034882;28;20119;-71
2023/03/03 10:52:17;;;;;;;6.95;3.92;;;;;;;9.28;77.79;100745.31;5052271;28;20049;-71
2023/03/03 10:55:16;;;;;;;8.38;4.18;;;;;;;9.36;77.44;100746.44;5055314;28;20060;-71
2023/03/03 10:57:51;;;;;;;6.40;4.03;;;;;;;9.39;77.32;100747.00;5053120;28;20037;-72
2023/03/03 11:00:26;;;;;;;6.03;3.27;;;;;;;9.24;76.00;100737.91;5060369;28;20123;-72
2023/03/03 11:03:07;;;;;;;4.80;3.57;;;;;;;9.23;75.95;100739.69;5037168;28;20032;-72
2023/03/03 11:05:54;;;;;;;5.88;4.07;;;;;;;9.28;75.57;100747.91;5053041;28;20036;-72
2023/03/03 11:08:45;;;;;;;4.35;3.30;;;;;;;9.27;75.68;100742.84;5051211;28;20036;-72
2023/03/03 11:11:48;;;;;;;4.70;3.88;;;;;;;9.23;73.79;100738.84;5058165;28;20516;-71
2023/03/03 11:14:51;;;;;;;4.25;3.47;;;;;;;9.22;73.55;100729.41;5058060;28;20365;-72
2023/03/03 11:17:45;;;;;;;4.75;3.70;;;;;;;9.27;74.46;100733.25;5055178;28;20484;-72
2023/03/03 11:20:33;;;;;;;6.35;3.53;;;;;;;9.29;73.44;100735.72;5058406;28;20090;-72
2023/03/03 11:23:45;;;;;;;4.90;3.50;;;;;;;9.27;73.70;100727.25;5059730;28;20380;-72
2023/03/03 11:26:10;;;;;;;6.97;4.53;;;;;;;9.31;75.08;100736.44;5058170;28;20039;-72
2023/03/03 11:28:43;;;;;;;6.43;5.05;;;;;;;9.42;74.60;100740.72;5062081;28;20465;-71
2023/03/03 11:31:09;;;;;;;8.65;5.32;;;;;;;9.47;75.09;100744.56;5057876;28;20053;-72
2023/03/03 11:34:05;;;;;;;5.45;4.22;;;;;;;9.38;73.67;100732.38;5059927;28;20075;-72
2023/03/03 11:36:41;;;;;;;6.40;3.33;;;;;;;9.35;74.51;100735.22;5046451;28;20434;-71
2023/03/03 11:39:20;;;;;;;5.22;2.97;;;;;;;9.31;74.25;100726.03;5060803;28;20520;-71